createdAt,value
2018-05-29T00:01:02.304Z,7.30
2018-05-29T00:04:05.572Z,7.63
2018-05-29T00:07:07.713Z,7.50
2018-05-29T00:10:09.819Z,7.40
2018-05-29T00:13:11.897Z,7.43
2018-05-29T00:16:14.025Z,7.40
2018-05-29T00:19:16.007Z,8.10
2018-05-29T00:22:18.092Z,7.90
2018-05-29T00:25:20.166Z,7.67
2018-05-29T00:28:22.238Z,7.60
2018-05-29T00:31:24.324Z,7.67
2018-05-29T00:34:26.387Z,7.77
2018-05-29T00:37:28.462Z,7.53
2018-05-29T00:40:32.553Z,8.00
2018-05-29T00:43:35.721Z,7.77
2018-05-29T00:46:37.759Z,7.50
2018-05-29T00:49:39.989Z,7.90
2018-05-29T00:52:42.105Z,7.27
2018-05-29T00:55:44.270Z,7.70
2018-05-29T00:58:46.431Z,6.87
2018-05-29T01:01:48.443Z,7.77
2018-05-29T01:04:50.645Z,7.87
2018-05-29T01:08:05.161Z,6.80
2018-05-29T01:11:07.325Z,7.37
2018-05-29T01:14:09.380Z,6.63
2018-05-29T01:17:11.533Z,6.83
2018-05-29T01:20:13.601Z,7.70
2018-05-29T01:23:15.664Z,7.00
2018-05-29T01:26:17.748Z,7.67
2018-05-29T01:29:19.810Z,7.27
2018-05-29T01:32:21.863Z,7.17
2018-05-29T01:35:24.228Z,7.30
2018-05-29T01:38:26.308Z,7.10
2018-05-29T01:41:28.408Z,7.10
2018-05-29T01:44:30.555Z,7.03
2018-05-29T01:47:32.635Z,7.87
2018-05-29T01:50:35.811Z,7.70
2018-05-29T01:53:37.998Z,7.87
2018-05-29T01:56:40.071Z,8.20
2018-05-29T01:59:42.133Z,7.63
2018-05-29T02:02:44.188Z,8.00
2018-05-29T02:05:46.255Z,8.17
2018-05-29T02:08:48.318Z,8.43
2018-05-29T02:11:50.247Z,8.37
2018-05-29T02:14:53.278Z,8.07
2018-05-29T02:17:55.421Z,8.30
2018-05-29T02:20:57.460Z,8.13
2018-05-29T02:23:59.523Z,8.30
2018-05-29T02:27:01.693Z,8.30
2018-05-29T02:30:04.742Z,8.20
2018-05-29T02:33:06.982Z,8.03
2018-05-29T02:36:09.405Z,8.10
2018-05-29T02:39:11.528Z,8.33
2018-05-29T02:42:13.659Z,8.77
2018-05-29T02:45:15.752Z,8.83
2018-05-29T02:48:17.776Z,8.97
2018-05-29T02:51:19.852Z,9.43
2018-05-29T02:54:21.930Z,9.43
2018-05-29T02:57:24.094Z,8.90
2018-05-29T03:00:26.156Z,9.80
2018-05-29T03:03:28.239Z,9.20
2018-05-29T03:06:30.332Z,9.70
2018-05-29T03:09:32.611Z,9.40
2018-05-29T03:12:35.507Z,9.40
2018-05-29T03:15:37.541Z,8.90
2018-05-29T03:18:39.624Z,9.23
2018-05-29T03:21:41.694Z,8.63
2018-05-29T03:24:43.745Z,8.60
2018-05-29T03:27:45.812Z,8.30
2018-05-29T03:30:47.762Z,9.33
2018-05-29T03:33:49.838Z,8.73
2018-05-29T03:36:51.911Z,8.47
2018-05-29T03:39:53.986Z,8.40
2018-05-29T03:42:56.038Z,9.17
2018-05-29T03:46:07.015Z,9.20
2018-05-29T03:49:09.067Z,9.40
2018-05-29T03:52:11.032Z,7.93
2018-05-29T03:55:13.100Z,9.33
2018-05-29T03:58:15.244Z,8.30
2018-05-29T04:01:17.303Z,9.07
2018-05-29T04:04:19.449Z,9.30
2018-05-29T04:07:21.478Z,9.53
2018-05-29T04:10:23.594Z,8.43
2018-05-29T04:13:25.662Z,9.50
2018-05-29T04:16:27.677Z,9.60
2018-05-29T04:19:29.784Z,8.87
2018-05-29T04:22:31.864Z,9.57
2018-05-29T04:25:33.894Z,8.53
2018-05-29T04:28:36.709Z,10.17
2018-05-29T04:31:38.764Z,10.00
2018-05-29T04:34:40.854Z,9.30
2018-05-29T04:37:43.875Z,10.77
2018-05-29T04:40:45.922Z,10.63
2018-05-29T04:43:48.065Z,10.93
2018-05-29T04:46:50.125Z,9.90
2018-05-29T04:49:52.201Z,9.90
2018-05-29T04:52:54.395Z,9.50
2018-05-29T04:55:56.473Z,9.80
2018-05-29T04:58:58.564Z,10.20
2018-05-29T05:02:00.587Z,9.47
2018-05-29T05:05:02.691Z,9.27
2018-05-29T05:08:05.336Z,9.80
2018-05-29T05:11:07.424Z,10.17
2018-05-29T05:14:09.491Z,10.23
2018-05-29T05:17:11.511Z,9.60
2018-05-29T05:20:13.543Z,10.20
2018-05-29T05:23:16.717Z,10.27
2018-05-29T05:26:18.751Z,10.10
2018-05-29T05:29:20.735Z,10.03
2018-05-29T05:32:22.716Z,8.67
2018-05-29T05:35:24.814Z,9.67
2018-05-29T05:38:26.834Z,9.33
2018-05-29T05:41:30.013Z,9.30
2018-05-29T05:44:32.025Z,9.63
2018-05-29T05:47:34.096Z,9.00
2018-05-29T05:50:36.154Z,8.77
2018-05-29T05:53:38.224Z,8.83
2018-05-29T05:56:40.241Z,8.63
2018-05-29T05:59:42.232Z,8.07
2018-05-29T06:02:44.279Z,7.60
2018-05-29T06:05:46.271Z,7.30
2018-05-29T06:08:49.285Z,7.93
2018-05-29T06:11:51.255Z,7.80
2018-05-29T06:14:53.313Z,7.10
2018-05-29T06:17:55.291Z,7.07
2018-05-29T06:20:57.325Z,7.00
2018-05-29T06:23:59.322Z,7.00
2018-05-29T06:27:01.368Z,6.53
2018-05-29T06:30:03.385Z,7.20
2018-05-29T06:33:05.412Z,6.37
2018-05-29T06:36:07.492Z,7.10
2018-05-29T06:39:09.568Z,6.60
2018-05-29T06:42:11.711Z,6.97
2018-05-29T06:45:14.716Z,7.00
2018-05-29T06:48:16.657Z,6.63
2018-05-29T06:51:18.715Z,6.67
2018-05-29T06:54:22.005Z,7.17
2018-05-29T06:57:24.028Z,6.90
2018-05-29T07:00:26.088Z,6.57
2018-05-29T07:03:28.120Z,6.60
2018-05-29T07:06:30.175Z,7.73
2018-05-29T07:09:32.232Z,7.47
2018-05-29T07:12:34.241Z,7.00
2018-05-29T07:15:36.258Z,7.73
2018-05-29T07:18:39.370Z,6.97
2018-05-29T07:21:41.424Z,7.23
2018-05-29T07:24:43.393Z,7.90
2018-05-29T07:27:45.377Z,8.87
2018-05-29T07:30:47.448Z,8.50
2018-05-29T07:33:50.432Z,8.13
2018-05-29T07:36:52.416Z,7.87
2018-05-29T07:39:54.521Z,8.07
2018-05-29T07:42:56.544Z,9.30
2018-05-29T07:45:58.528Z,9.73
2018-05-29T07:49:00.500Z,9.23
2018-05-29T07:52:02.512Z,9.17
2018-05-29T07:55:04.443Z,8.90
2018-05-29T07:58:06.528Z,8.50
2018-05-29T08:01:08.591Z,9.77
2018-05-29T08:04:10.620Z,9.67
2018-05-29T08:07:12.615Z,10.00
2018-05-29T08:10:14.638Z,9.73
2018-05-29T08:13:16.635Z,9.63
2018-05-29T08:16:18.632Z,9.53
2018-05-29T08:19:21.873Z,9.03
2018-05-29T08:22:23.863Z,9.13
2018-05-29T08:25:25.845Z,9.50
2018-05-29T08:28:27.811Z,8.70
2018-05-29T08:31:29.850Z,8.70
2018-05-29T08:34:31.958Z,9.20
2018-05-29T08:37:33.915Z,8.80
2018-05-29T08:40:35.861Z,8.83
2018-05-29T08:43:37.865Z,9.07
2018-05-29T08:46:39.820Z,9.13
2018-05-29T08:49:41.863Z,8.77
2018-05-29T08:52:43.861Z,8.60
2018-05-29T08:55:45.903Z,8.53
2018-05-29T08:58:47.859Z,9.67
2018-05-29T09:01:50.444Z,8.63
2018-05-29T09:04:52.940Z,8.07
2018-05-29T09:07:54.875Z,8.33
2018-05-29T09:10:56.834Z,8.07
2018-05-29T09:13:58.836Z,7.83
2018-05-29T09:17:00.822Z,6.93
2018-05-29T09:20:02.960Z,7.33
2018-05-29T09:23:04.904Z,7.43
2018-05-29T09:26:06.953Z,7.70
2018-05-29T09:29:09.033Z,7.80
2018-05-29T09:32:10.970Z,7.80
2018-05-29T09:35:13.021Z,7.43
2018-05-29T09:38:15.064Z,7.83
2018-05-29T09:41:17.152Z,6.97
2018-05-29T09:44:19.199Z,8.00
2018-05-29T09:47:21.224Z,7.67
2018-05-29T09:50:23.219Z,7.83
2018-05-29T09:53:25.218Z,9.10
2018-05-29T09:56:27.192Z,8.83
2018-05-29T09:59:29.235Z,8.20
2018-05-29T10:02:31.286Z,8.10
2018-05-29T10:05:33.312Z,8.53
2018-05-29T10:08:35.348Z,7.87
2018-05-29T10:11:37.299Z,8.20
2018-05-29T10:14:39.310Z,8.00
2018-05-29T10:17:41.386Z,7.23
2018-05-29T10:20:43.452Z,6.83
2018-05-29T10:23:45.520Z,6.70
2018-05-29T10:26:47.544Z,7.27
2018-05-29T10:29:49.561Z,6.87
2018-05-29T10:32:51.613Z,6.40
2018-05-29T10:35:55.749Z,7.20
2018-05-29T10:38:58.713Z,7.30
2018-05-29T10:42:01.791Z,8.50
2018-05-29T10:45:03.824Z,6.23
2018-05-29T10:48:05.860Z,5.57
2018-05-29T10:51:08.028Z,5.20
2018-05-29T10:54:11.004Z,5.07
2018-05-29T10:57:13.104Z,5.10
2018-05-29T11:00:15.213Z,5.50
2018-05-29T11:03:17.223Z,4.73
2018-05-29T11:06:19.397Z,4.57
2018-05-29T11:09:22.363Z,5.33
2018-05-29T11:12:24.350Z,4.70
2018-05-29T11:15:27.470Z,5.17
2018-05-29T11:18:29.517Z,4.93
2018-05-29T11:21:31.598Z,5.30
2018-05-29T11:24:33.615Z,5.17
2018-05-29T11:27:35.716Z,5.00
2018-05-29T11:30:37.813Z,5.27
2018-05-29T11:33:39.899Z,5.17
2018-05-29T11:36:42.184Z,5.13
2018-05-29T11:39:44.195Z,4.73
2018-05-29T11:42:46.300Z,4.63
2018-05-29T11:45:48.326Z,4.90
2018-05-29T11:48:50.350Z,4.37
2018-05-29T11:51:52.355Z,4.80
2018-05-29T11:54:54.419Z,5.23
2018-05-29T11:57:57.511Z,5.10
2018-05-29T12:00:59.510Z,4.83
2018-05-29T12:04:01.575Z,4.53
2018-05-29T12:07:03.660Z,4.60
2018-05-29T12:10:05.757Z,4.60
2018-05-29T12:13:07.766Z,4.67
2018-05-29T12:16:09.839Z,4.70
2018-05-29T12:19:12.834Z,4.50
2018-05-29T12:22:15.860Z,4.43
2018-05-29T12:25:17.781Z,4.33
2018-05-29T12:28:19.849Z,3.87
2018-05-29T12:31:21.946Z,3.87
2018-05-29T12:34:24.251Z,3.53
2018-05-29T12:37:27.620Z,3.33
2018-05-29T12:40:29.677Z,3.70
2018-05-29T12:43:32.745Z,4.10
2018-05-29T12:46:34.694Z,3.80
2018-05-29T12:49:36.686Z,3.97
2018-05-29T12:52:38.738Z,3.80
2018-05-29T12:55:40.780Z,3.90
2018-05-29T12:58:42.827Z,4.13
2018-05-29T13:01:44.900Z,3.90
2018-05-29T13:04:47.973Z,4.30
2018-05-29T13:07:50.180Z,4.07
2018-05-29T13:10:52.195Z,4.33
2018-05-29T13:13:54.342Z,4.30
2018-05-29T13:16:56.436Z,4.10
2018-05-29T13:19:59.443Z,4.60
2018-05-29T13:23:01.510Z,5.23
2018-05-29T13:26:03.608Z,4.00
2018-05-29T13:29:05.632Z,4.03
2018-05-29T13:32:08.637Z,4.10
2018-05-29T13:35:10.739Z,4.13
2018-05-29T13:38:12.806Z,3.83
2018-05-29T13:41:14.984Z,3.83
2018-05-29T13:44:18.043Z,4.00
2018-05-29T13:47:20.051Z,3.30
2018-05-29T13:50:22.072Z,4.10
2018-05-29T13:53:24.100Z,3.57
2018-05-29T13:56:27.256Z,4.37
2018-05-29T13:59:29.264Z,4.57
2018-05-29T14:02:31.260Z,3.87
2018-05-29T14:05:33.307Z,4.00
2018-05-29T14:08:35.309Z,3.67
2018-05-29T14:11:38.440Z,3.83
2018-05-29T14:14:40.457Z,3.60
2018-05-29T14:17:42.513Z,3.63
2018-05-29T14:20:44.602Z,3.90
2018-05-29T14:23:46.642Z,3.60
2018-05-29T14:26:48.645Z,3.87
2018-05-29T14:29:50.699Z,3.90
2018-05-29T14:32:52.806Z,3.20
2018-05-29T14:35:54.855Z,3.60
2018-05-29T14:38:57.543Z,4.23
2018-05-29T14:42:00.580Z,4.10
2018-05-29T14:45:02.607Z,3.77
2018-05-29T14:48:05.777Z,4.23
2018-05-29T14:51:08.009Z,3.70
2018-05-29T14:54:10.055Z,4.00
2018-05-29T14:57:12.325Z,3.53
2018-05-29T15:00:14.394Z,3.87
2018-05-29T15:03:16.445Z,3.93
2018-05-29T15:06:18.463Z,3.60
2018-05-29T15:09:20.422Z,4.00
2018-05-29T15:12:22.431Z,3.63
2018-05-29T15:15:25.535Z,3.87
2018-05-29T15:18:35.940Z,4.07
2018-05-29T15:26:40.721Z,3.97
2018-05-29T15:29:58.015Z,3.60
2018-05-29T15:33:12.610Z,3.90
2018-05-29T15:36:14.720Z,4.23
2018-05-29T15:39:16.790Z,3.73
2018-05-29T15:42:18.917Z,4.13
2018-05-29T15:45:20.915Z,4.27
2018-05-29T15:48:22.984Z,4.27
2018-05-29T15:51:25.092Z,4.27
2018-05-29T15:54:27.840Z,3.97
2018-05-29T15:57:29.898Z,4.43
2018-05-29T16:00:31.968Z,4.20
2018-05-29T16:03:34.064Z,4.40
2018-05-29T16:06:36.353Z,4.37
2018-05-29T16:09:38.348Z,3.60
2018-05-29T16:12:40.530Z,3.90
2018-05-29T16:15:42.600Z,4.20
2018-05-29T16:18:44.697Z,4.30
2018-05-29T16:21:46.848Z,4.03
2018-05-29T16:24:48.922Z,4.10
2018-05-29T16:27:51.996Z,3.70
2018-05-29T16:30:54.248Z,4.00
2018-05-29T16:33:56.239Z,3.90
2018-05-29T16:36:58.644Z,4.23
2018-05-29T16:40:00.693Z,4.37
2018-05-29T16:43:02.802Z,4.27
2018-05-29T16:46:05.863Z,4.40
2018-05-29T16:49:07.949Z,3.80
2018-05-29T16:52:10.107Z,4.20
2018-05-29T16:55:12.081Z,3.93
2018-05-29T16:58:14.177Z,3.90
2018-05-29T17:01:16.268Z,4.10
2018-05-29T17:04:19.395Z,4.10
2018-05-29T17:07:21.438Z,3.60
2018-05-29T17:10:23.556Z,4.10
2018-05-29T17:13:25.671Z,3.60
2018-05-29T17:16:28.503Z,3.53
2018-05-29T17:19:30.657Z,3.50
2018-05-29T17:22:32.819Z,3.97
2018-05-29T17:25:34.883Z,4.03
2018-05-29T17:28:36.924Z,4.40
2018-05-29T17:31:38.912Z,4.57
2018-05-29T17:34:41.074Z,4.00
2018-05-29T17:37:43.162Z,5.00
2018-05-29T17:40:45.279Z,4.33
2018-05-29T17:43:47.300Z,4.43
2018-05-29T17:46:49.556Z,4.27
2018-05-29T17:49:51.660Z,4.60
2018-05-29T17:52:53.708Z,4.30
2018-05-29T17:55:55.756Z,4.23
2018-05-29T17:58:58.788Z,4.30
2018-05-29T18:02:00.956Z,4.37
2018-05-29T18:05:03.141Z,4.43
2018-05-29T18:08:05.397Z,4.73
2018-05-29T18:11:07.480Z,4.20
2018-05-29T18:14:09.535Z,4.07
2018-05-29T18:17:11.579Z,3.60
2018-05-29T18:20:13.532Z,4.40
2018-05-29T18:23:15.644Z,4.23
2018-05-29T18:26:19.848Z,4.13
2018-05-29T18:29:21.903Z,4.30
2018-05-29T18:32:25.030Z,3.80
2018-05-29T18:35:27.787Z,4.20
2018-05-29T18:38:29.872Z,4.13
2018-05-29T18:41:31.960Z,3.90
2018-05-29T18:44:35.133Z,3.90
2018-05-29T18:47:37.186Z,4.23
2018-05-29T18:50:39.243Z,4.03
2018-05-29T18:53:41.478Z,4.10
2018-05-29T18:56:43.523Z,4.30
2018-05-29T18:59:45.624Z,3.70
2018-05-29T19:02:47.763Z,3.50
2018-05-29T19:05:49.762Z,3.97
2018-05-29T19:08:51.796Z,3.60
2018-05-29T19:11:53.962Z,5.10
2018-05-29T19:14:56.035Z,4.57
2018-05-29T19:17:59.140Z,3.90
2018-05-29T19:21:01.373Z,4.27
2018-05-29T19:24:03.513Z,4.20
2018-05-29T19:27:05.657Z,4.00
2018-05-29T19:30:07.754Z,4.10
2018-05-29T19:33:09.864Z,3.87
2018-05-29T19:36:11.807Z,3.73
2018-05-29T19:39:13.866Z,4.50
2018-05-29T19:42:15.951Z,5.10
2018-05-29T19:45:18.011Z,5.00
2018-05-29T19:48:20.092Z,5.10
2018-05-29T19:51:22.188Z,4.63
2018-05-29T19:54:24.242Z,5.17
2018-05-29T19:57:26.325Z,5.30
2018-05-29T20:00:29.357Z,4.67
2018-05-29T20:03:31.593Z,5.40
2018-05-29T20:06:33.539Z,5.10
2018-05-29T20:09:35.608Z,5.33
2018-05-29T20:12:37.675Z,5.50
2018-05-29T20:15:39.756Z,5.20
2018-05-29T20:18:42.852Z,5.33
2018-05-29T20:21:45.179Z,5.00
2018-05-29T20:24:47.259Z,5.63
2018-05-29T20:27:49.363Z,4.80
2018-05-29T20:30:51.416Z,5.10
2018-05-29T20:33:53.491Z,5.13
2018-05-29T20:36:55.596Z,5.50
2018-05-29T20:39:58.064Z,5.63
2018-05-29T20:43:01.151Z,5.70
2018-05-29T20:46:03.230Z,6.00
2018-05-29T20:49:05.370Z,5.60
2018-05-29T20:52:07.455Z,6.13
2018-05-29T20:55:09.616Z,6.50
2018-05-29T20:58:11.671Z,6.07
2018-05-29T21:01:13.744Z,5.67
2018-05-29T21:04:15.830Z,5.73
2018-05-29T21:07:19.946Z,5.67
2018-05-29T21:10:22.020Z,6.30
2018-05-29T21:13:25.073Z,6.20
2018-05-29T21:16:29.720Z,5.90
2018-05-29T21:19:32.833Z,5.67
2018-05-29T21:22:35.892Z,5.70
2018-05-29T21:25:37.868Z,5.83
2018-05-29T21:28:39.915Z,5.87
2018-05-29T21:31:41.989Z,5.80
2018-05-29T21:34:44.072Z,5.90
2018-05-29T21:37:46.141Z,5.60
2018-05-29T21:40:48.222Z,6.03
2018-05-29T21:43:50.347Z,6.17
2018-05-29T21:46:52.432Z,5.77
2018-05-29T21:49:54.531Z,6.33
2018-05-29T21:52:56.591Z,6.07
2018-05-29T21:55:59.266Z,6.50
2018-05-29T21:59:01.344Z,6.23
2018-05-29T22:02:03.607Z,6.63
2018-05-29T22:05:05.710Z,6.63
2018-05-29T22:08:07.885Z,5.57
2018-05-29T22:11:10.929Z,6.47
2018-05-29T22:14:14.034Z,6.03
2018-05-29T22:17:16.087Z,5.90
2018-05-29T22:20:18.180Z,6.07
2018-05-29T22:23:20.931Z,5.60
2018-05-29T22:26:22.924Z,6.10
2018-05-29T22:29:24.991Z,6.30
2018-05-29T22:32:28.632Z,5.93
2018-05-29T22:35:30.592Z,6.40
2018-05-29T22:38:33.797Z,5.90
2018-05-29T22:41:35.807Z,6.10
2018-05-29T22:44:37.784Z,5.97
2018-05-29T22:47:39.886Z,5.77
2018-05-29T22:50:42.936Z,6.27
2018-05-29T22:53:46.545Z,5.73
2018-05-29T22:56:48.632Z,6.33
2018-05-29T22:59:50.687Z,5.43
2018-05-29T23:02:52.765Z,5.73
2018-05-29T23:05:54.823Z,6.17
2018-05-29T23:08:56.935Z,5.83
2018-05-29T23:11:59.999Z,6.23
2018-05-29T23:15:03.952Z,6.87
2018-05-29T23:18:06.070Z,6.40
2018-05-29T23:21:08.844Z,6.00
2018-05-29T23:24:10.947Z,7.47
2018-05-29T23:27:12.982Z,6.17
2018-05-29T23:30:15.084Z,6.33
2018-05-29T23:33:17.167Z,6.63
2018-05-29T23:36:19.288Z,7.10
2018-05-29T23:39:22.284Z,6.37
2018-05-29T23:42:24.381Z,6.03
2018-05-29T23:45:26.440Z,6.23
2018-05-29T23:48:29.236Z,5.90
2018-05-29T23:51:31.279Z,6.40
2018-05-29T23:54:33.373Z,6.13
2018-05-29T23:57:53.722Z,6.50
